createdAt,value
2018-07-31T00:00:50.609Z,4.97
2018-07-31T00:03:18.083Z,4.92
2018-07-31T00:05:45.780Z,4.45
2018-07-31T00:08:13.210Z,4.55
2018-07-31T00:10:40.707Z,3.90
2018-07-31T00:13:08.130Z,4.25
2018-07-31T00:15:35.555Z,4.12
2018-07-31T00:18:03.563Z,4.53
2018-07-31T00:20:30.970Z,4.28
2018-07-31T00:22:58.446Z,4.45
2018-07-31T00:25:25.862Z,4.33
2018-07-31T00:27:53.433Z,4.28
2018-07-31T00:30:20.971Z,4.67
2018-07-31T00:32:48.420Z,4.55
2018-07-31T00:35:15.894Z,4.58
2018-07-31T00:37:43.307Z,4.30
2018-07-31T00:40:10.730Z,3.90
2018-07-31T00:42:38.212Z,4.95
2018-07-31T00:45:05.921Z,4.45
2018-07-31T00:47:33.579Z,4.95
2018-07-31T00:50:01.135Z,5.22
2018-07-31T00:52:28.532Z,4.97
2018-07-31T00:54:55.962Z,4.20
2018-07-31T00:57:23.642Z,4.50
2018-07-31T00:59:51.130Z,4.83
2018-07-31T01:02:18.629Z,4.70
2018-07-31T01:04:46.052Z,5.40
2018-07-31T01:07:13.510Z,4.92
2018-07-31T01:09:40.906Z,4.37
2018-07-31T01:12:08.391Z,4.45
2018-07-31T01:14:35.798Z,4.62
2018-07-31T01:17:03.225Z,4.35
2018-07-31T01:19:31.782Z,4.47
2018-07-31T01:21:59.406Z,3.92
2018-07-31T01:24:27.115Z,4.70
2018-07-31T01:26:54.535Z,4.67
2018-07-31T01:29:22.050Z,4.65
2018-07-31T01:31:49.784Z,5.22
2018-07-31T01:34:17.193Z,4.12
2018-07-31T01:36:44.627Z,5.08
2018-07-31T01:39:12.164Z,4.60
2018-07-31T01:41:39.755Z,4.78
2018-07-31T01:44:07.215Z,5.15
2018-07-31T01:46:34.616Z,4.65
2018-07-31T01:49:02.044Z,4.90
2018-07-31T01:51:29.453Z,4.67
2018-07-31T01:53:56.907Z,4.92
2018-07-31T01:56:24.338Z,5.40
2018-07-31T01:58:51.779Z,4.67
2018-07-31T02:01:19.298Z,4.45
2018-07-31T02:03:46.774Z,4.60
2018-07-31T02:06:14.277Z,4.65
2018-07-31T02:08:41.771Z,5.17
2018-07-31T02:11:09.185Z,5.35
2018-07-31T02:13:36.748Z,5.22
2018-07-31T02:16:04.182Z,5.33
2018-07-31T02:18:31.618Z,4.62
2018-07-31T02:20:59.015Z,4.80
2018-07-31T02:23:26.434Z,4.60
2018-07-31T02:25:53.847Z,5.22
2018-07-31T02:28:21.360Z,4.78
2018-07-31T02:30:48.678Z,4.40
2018-07-31T02:33:16.081Z,5.35
2018-07-31T02:35:43.518Z,5.25
2018-07-31T02:38:10.915Z,4.80
2018-07-31T02:40:38.326Z,4.62
2018-07-31T02:43:05.762Z,4.65
2018-07-31T02:45:33.185Z,5.12
2018-07-31T02:48:00.607Z,4.85
2018-07-31T02:50:28.040Z,4.55
2018-07-31T02:52:55.511Z,5.65
2018-07-31T02:55:22.929Z,4.83
2018-07-31T02:57:50.383Z,5.00
2018-07-31T03:00:17.836Z,4.80
2018-07-31T03:02:45.238Z,5.20
2018-07-31T03:05:12.740Z,4.92
2018-07-31T03:07:40.522Z,4.40
2018-07-31T03:10:08.541Z,4.85
2018-07-31T03:12:35.962Z,5.12
2018-07-31T03:15:04.642Z,5.08
2018-07-31T03:17:32.149Z,4.60
2018-07-31T03:19:59.569Z,4.37
2018-07-31T03:22:26.987Z,5.03
2018-07-31T03:24:54.426Z,4.70
2018-07-31T03:27:21.842Z,4.42
2018-07-31T03:29:49.281Z,5.12
2018-07-31T03:32:16.691Z,4.60
2018-07-31T03:34:44.102Z,4.67
2018-07-31T03:37:11.534Z,4.60
2018-07-31T03:39:38.987Z,5.83
2018-07-31T03:42:06.472Z,4.60
2018-07-31T03:44:33.887Z,4.80
2018-07-31T03:47:01.374Z,4.67
2018-07-31T03:49:28.805Z,4.47
2018-07-31T03:51:56.278Z,5.22
2018-07-31T03:54:23.717Z,5.25
2018-07-31T03:56:51.199Z,4.50
2018-07-31T03:59:18.648Z,4.42
2018-07-31T04:01:46.115Z,5.25
2018-07-31T04:04:13.629Z,4.60
2018-07-31T04:06:41.044Z,4.75
2018-07-31T04:09:09.798Z,4.75
2018-07-31T04:11:37.202Z,4.67
2018-07-31T04:14:04.646Z,4.80
2018-07-31T04:16:32.120Z,4.30
2018-07-31T04:18:59.650Z,4.47
2018-07-31T04:21:27.090Z,5.10
2018-07-31T04:23:54.562Z,5.22
2018-07-31T04:26:21.975Z,5.30
2018-07-31T04:28:49.522Z,4.30
2018-07-31T04:31:17.037Z,4.83
2018-07-31T04:33:44.493Z,5.10
2018-07-31T04:36:11.943Z,5.05
2018-07-31T04:38:39.386Z,5.10
2018-07-31T04:41:06.894Z,5.22
2018-07-31T04:43:34.350Z,5.33
2018-07-31T04:46:01.800Z,4.62
2018-07-31T04:48:29.202Z,5.42
2018-07-31T04:50:56.617Z,4.78
2018-07-31T04:53:24.164Z,4.90
2018-07-31T04:55:51.952Z,5.20
2018-07-31T04:58:21.509Z,4.97
2018-07-31T05:00:48.965Z,4.97
2018-07-31T05:03:16.421Z,4.95
2018-07-31T05:05:43.825Z,5.25
2018-07-31T05:08:11.400Z,5.35
2018-07-31T05:10:38.822Z,4.78
2018-07-31T05:13:06.294Z,5.28
2018-07-31T05:15:33.733Z,4.40
2018-07-31T05:18:01.240Z,5.37
2018-07-31T05:20:28.859Z,4.67
2018-07-31T05:22:57.093Z,5.20
2018-07-31T05:25:24.570Z,5.20
2018-07-31T05:27:52.061Z,5.22
2018-07-31T05:30:19.517Z,5.70
2018-07-31T05:32:47.004Z,5.47
2018-07-31T05:35:14.539Z,5.67
2018-07-31T05:37:42.105Z,5.70
2018-07-31T05:40:09.786Z,4.92
2018-07-31T05:42:37.250Z,6.10
2018-07-31T05:45:05.182Z,4.95
2018-07-31T05:47:32.599Z,5.83
2018-07-31T05:49:59.995Z,6.45
2018-07-31T05:52:27.435Z,6.00
2018-07-31T05:54:54.870Z,5.97
2018-07-31T05:57:22.669Z,6.00
2018-07-31T05:59:50.165Z,5.92
2018-07-31T06:02:17.666Z,6.20
2018-07-31T06:04:45.082Z,6.25
2018-07-31T06:07:12.582Z,5.70
2018-07-31T06:09:40.051Z,5.70
2018-07-31T06:12:07.521Z,6.00
2018-07-31T06:14:34.938Z,6.08
2018-07-31T06:17:02.436Z,6.40
2018-07-31T06:19:29.864Z,6.00
2018-07-31T06:21:57.266Z,5.62
2018-07-31T06:24:25.158Z,5.58
2018-07-31T06:26:53.178Z,5.40
2018-07-31T06:29:21.502Z,5.70
2018-07-31T06:31:49.326Z,5.35
2018-07-31T06:34:16.731Z,4.55
2018-07-31T06:36:44.251Z,5.12
2018-07-31T06:39:11.656Z,5.67
2018-07-31T06:41:40.399Z,5.53
2018-07-31T06:44:08.203Z,5.22
2018-07-31T06:46:36.485Z,5.62
2018-07-31T06:49:04.419Z,5.08
2018-07-31T06:51:32.297Z,5.40
2018-07-31T06:54:00.089Z,5.55
2018-07-31T06:56:27.502Z,4.80
2018-07-31T06:58:55.072Z,5.10
2018-07-31T07:01:22.523Z,4.87
2018-07-31T07:03:49.953Z,5.00
2018-07-31T07:06:17.414Z,5.20
2018-07-31T07:08:44.858Z,5.10
2018-07-31T07:11:12.319Z,4.45
2018-07-31T07:13:39.826Z,5.00
2018-07-31T07:16:07.342Z,4.72
2018-07-31T07:18:34.767Z,5.50
2018-07-31T07:21:02.325Z,5.40
2018-07-31T07:23:29.895Z,4.92
2018-07-31T07:25:57.413Z,5.45
2018-07-31T07:28:27.201Z,5.37
2018-07-31T07:30:54.655Z,5.70
2018-07-31T07:33:22.074Z,5.25
2018-07-31T07:35:49.711Z,5.15
2018-07-31T07:38:17.142Z,4.85
2018-07-31T07:40:44.574Z,5.37
2018-07-31T07:43:12.138Z,5.28
2018-07-31T07:45:39.811Z,5.28
2018-07-31T07:48:07.223Z,5.00
2018-07-31T07:50:35.095Z,5.50
2018-07-31T07:53:02.574Z,4.80
2018-07-31T07:55:29.999Z,5.40
2018-07-31T07:57:57.416Z,4.55
2018-07-31T08:00:24.918Z,5.58
2018-07-31T08:02:52.468Z,5.08
2018-07-31T08:05:19.898Z,5.72
2018-07-31T08:07:47.406Z,5.40
2018-07-31T08:10:14.822Z,5.25
2018-07-31T08:12:42.407Z,5.05
2018-07-31T08:15:09.891Z,4.80
2018-07-31T08:17:37.326Z,5.65
2018-07-31T08:20:05.404Z,5.67
2018-07-31T08:22:32.847Z,5.25
2018-07-31T08:25:00.304Z,5.22
2018-07-31T08:27:27.774Z,5.00
2018-07-31T08:29:55.307Z,5.22
2018-07-31T08:32:22.791Z,4.65
2018-07-31T08:34:50.209Z,5.47
2018-07-31T08:37:17.708Z,5.62
2018-07-31T08:39:45.267Z,4.95
2018-07-31T08:42:12.700Z,5.03
2018-07-31T08:44:40.199Z,4.12
2018-07-31T08:47:07.611Z,4.92
2018-07-31T08:49:35.013Z,5.72
2018-07-31T08:52:02.499Z,4.78
2018-07-31T08:54:29.951Z,4.97
2018-07-31T08:56:57.454Z,5.03
2018-07-31T08:59:24.885Z,4.85
2018-07-31T09:01:52.327Z,5.10
2018-07-31T09:04:19.766Z,5.10
2018-07-31T09:06:47.213Z,5.40
2018-07-31T09:09:14.631Z,5.15
2018-07-31T09:11:42.042Z,4.37
2018-07-31T09:14:09.473Z,4.90
2018-07-31T09:16:37.407Z,4.95
2018-07-31T09:19:04.864Z,4.55
2018-07-31T09:21:32.327Z,4.87
2018-07-31T09:23:59.893Z,4.95
2018-07-31T09:26:27.342Z,4.70
2018-07-31T09:28:54.801Z,4.30
2018-07-31T09:31:22.235Z,3.50
2018-07-31T09:33:49.689Z,4.60
2018-07-31T09:36:17.139Z,4.20
2018-07-31T09:38:44.630Z,4.25
2018-07-31T09:41:12.082Z,4.33
2018-07-31T09:43:39.550Z,3.50
2018-07-31T09:46:06.959Z,3.22
2018-07-31T09:48:34.559Z,3.37
2018-07-31T09:51:02.042Z,3.55
2018-07-31T09:53:29.638Z,3.20
2018-07-31T09:55:57.062Z,4.10
2018-07-31T09:58:24.594Z,3.60
2018-07-31T10:00:57.690Z,3.70
2018-07-31T10:03:25.127Z,4.10
2018-07-31T10:05:52.607Z,3.67
2018-07-31T10:08:20.684Z,3.80
2018-07-31T10:10:48.539Z,4.37
2018-07-31T10:13:15.977Z,3.62
2018-07-31T10:15:43.418Z,3.45
2018-07-31T10:18:10.961Z,3.65
2018-07-31T10:20:38.334Z,3.27
2018-07-31T10:23:05.898Z,3.30
2018-07-31T10:25:33.368Z,3.35
2018-07-31T10:28:00.818Z,3.20
2018-07-31T10:30:28.286Z,3.20
2018-07-31T10:32:55.703Z,3.15
2018-07-31T10:35:23.120Z,3.30
2018-07-31T10:37:50.637Z,3.40
2018-07-31T10:40:18.012Z,2.83
2018-07-31T10:42:45.502Z,2.85
2018-07-31T10:45:13.004Z,2.47
2018-07-31T10:47:40.470Z,3.30
2018-07-31T10:50:08.022Z,2.80
2018-07-31T10:52:35.448Z,2.75
2018-07-31T10:55:02.976Z,2.90
2018-07-31T10:57:30.370Z,2.80
2018-07-31T10:59:57.824Z,2.70
2018-07-31T11:02:25.232Z,3.12
2018-07-31T11:04:52.684Z,2.75
2018-07-31T11:07:20.183Z,2.42
2018-07-31T11:09:47.659Z,3.22
2018-07-31T11:12:15.149Z,2.85
2018-07-31T11:14:42.837Z,2.58
2018-07-31T11:17:10.336Z,2.90
2018-07-31T11:19:37.871Z,3.05
2018-07-31T11:22:05.314Z,2.60
2018-07-31T11:24:32.727Z,2.70
2018-07-31T11:27:00.150Z,2.45
2018-07-31T11:29:27.589Z,2.42
2018-07-31T11:31:55.017Z,2.85
2018-07-31T11:34:22.421Z,2.47
2018-07-31T11:36:50.065Z,2.77
2018-07-31T11:39:17.521Z,2.60
2018-07-31T11:41:44.963Z,2.40
2018-07-31T11:44:12.435Z,2.85
2018-07-31T11:46:39.959Z,2.62
2018-07-31T11:49:07.685Z,3.00
2018-07-31T11:51:35.291Z,2.55
2018-07-31T11:54:02.717Z,2.62
2018-07-31T11:56:30.211Z,2.92
2018-07-31T11:58:57.710Z,2.70
2018-07-31T12:01:25.301Z,2.33
2018-07-31T12:03:52.883Z,2.45
2018-07-31T12:06:20.448Z,2.55
2018-07-31T12:08:47.894Z,2.30
2018-07-31T12:11:15.334Z,2.40
2018-07-31T12:13:42.767Z,2.27
2018-07-31T12:16:10.311Z,2.15
2018-07-31T12:18:37.746Z,2.37
2018-07-31T12:21:05.194Z,2.45
2018-07-31T12:23:32.618Z,2.20
2018-07-31T12:26:00.142Z,2.47
2018-07-31T12:28:27.575Z,2.22
2018-07-31T12:30:55.011Z,2.20
2018-07-31T12:33:22.467Z,2.52
2018-07-31T12:35:49.957Z,2.55
2018-07-31T12:38:17.409Z,2.60
2018-07-31T12:40:44.854Z,2.40
2018-07-31T12:43:12.298Z,2.33
2018-07-31T12:45:39.825Z,2.77
2018-07-31T12:48:07.440Z,2.10
2018-07-31T12:50:35.014Z,2.70
2018-07-31T12:53:02.628Z,2.55
2018-07-31T12:55:30.065Z,2.08
2018-07-31T12:57:57.514Z,2.42
2018-07-31T13:00:24.984Z,2.37
2018-07-31T13:02:52.547Z,2.62
2018-07-31T13:05:20.203Z,2.27
2018-07-31T13:07:47.652Z,1.90
2018-07-31T13:10:15.063Z,2.17
2018-07-31T13:12:42.549Z,2.20
2018-07-31T13:15:10.080Z,2.27
2018-07-31T13:17:37.607Z,2.15
2018-07-31T13:20:05.058Z,2.35
2018-07-31T13:22:32.537Z,2.60
2018-07-31T13:24:59.963Z,2.85
2018-07-31T13:27:27.491Z,2.22
2018-07-31T13:29:54.910Z,2.72
2018-07-31T13:32:22.412Z,2.30
2018-07-31T13:34:49.857Z,2.70
2018-07-31T13:37:17.333Z,2.20
2018-07-31T13:39:44.789Z,2.45
2018-07-31T13:42:12.233Z,2.47
2018-07-31T13:44:39.676Z,2.30
2018-07-31T13:47:07.137Z,2.77
2018-07-31T13:49:34.559Z,2.55
2018-07-31T13:52:02.042Z,2.67
2018-07-31T13:54:29.507Z,2.30
2018-07-31T13:56:56.934Z,2.80
2018-07-31T13:59:24.460Z,2.65
2018-07-31T14:01:51.913Z,2.55
2018-07-31T14:04:19.421Z,2.62
2018-07-31T14:06:46.922Z,2.72
2018-07-31T14:09:14.358Z,2.42
2018-07-31T14:11:42.026Z,2.37
2018-07-31T14:14:09.548Z,2.40
2018-07-31T14:16:37.122Z,2.58
2018-07-31T14:19:04.817Z,2.45
2018-07-31T14:21:32.238Z,2.22
2018-07-31T14:23:59.662Z,2.42
2018-07-31T14:26:29.151Z,2.55
2018-07-31T14:28:56.767Z,2.60
2018-07-31T14:31:24.264Z,2.60
2018-07-31T14:33:51.707Z,2.37
2018-07-31T14:36:19.908Z,2.20
2018-07-31T14:38:50.273Z,2.70
2018-07-31T14:41:17.765Z,2.58
2018-07-31T14:43:45.174Z,2.40
2018-07-31T14:46:12.682Z,2.35
2018-07-31T14:48:40.250Z,2.52
2018-07-31T14:51:07.673Z,2.15
2018-07-31T14:53:35.185Z,2.70
2018-07-31T14:56:02.754Z,2.90
2018-07-31T14:58:30.223Z,2.30
2018-07-31T15:00:59.161Z,2.62
2018-07-31T15:03:27.750Z,2.65
2018-07-31T15:05:55.238Z,2.77
2018-07-31T15:08:22.709Z,2.58
2018-07-31T15:10:50.191Z,2.20
2018-07-31T15:13:17.676Z,2.10
2018-07-31T15:15:47.831Z,2.22
2018-07-31T15:18:15.277Z,2.10
2018-07-31T15:20:42.693Z,2.25
2018-07-31T15:23:10.122Z,2.02
2018-07-31T15:25:37.616Z,2.00
2018-07-31T15:28:05.084Z,1.87
2018-07-31T15:30:32.513Z,2.40
2018-07-31T15:32:59.987Z,2.30
2018-07-31T15:35:28.651Z,2.50
2018-07-31T15:37:58.061Z,2.10
2018-07-31T15:40:25.820Z,1.67
2018-07-31T15:42:53.413Z,1.98
2018-07-31T15:45:20.950Z,1.80
2018-07-31T15:47:48.456Z,2.02
2018-07-31T15:50:15.918Z,1.90
2018-07-31T15:52:43.359Z,1.52
2018-07-31T15:55:10.819Z,1.70
2018-07-31T15:57:38.327Z,2.65
2018-07-31T16:00:07.234Z,2.70
2018-07-31T16:02:34.839Z,2.95
2018-07-31T16:05:02.493Z,2.80
2018-07-31T16:07:30.050Z,2.95
2018-07-31T16:09:58.630Z,2.80
2018-07-31T16:12:26.157Z,2.72
2018-07-31T16:14:53.778Z,2.95
2018-07-31T16:17:21.314Z,2.67
2018-07-31T16:19:49.135Z,2.45
2018-07-31T16:22:16.685Z,2.33
2018-07-31T16:24:44.295Z,2.05
2018-07-31T16:27:11.824Z,2.05
2018-07-31T16:29:39.461Z,2.15
2018-07-31T16:32:07.056Z,2.80
2018-07-31T16:34:34.604Z,2.17
2018-07-31T16:37:02.313Z,2.42
2018-07-31T16:39:29.825Z,2.10
2018-07-31T16:41:57.817Z,2.17
2018-07-31T16:44:25.315Z,2.22
2018-07-31T16:46:52.891Z,2.27
2018-07-31T16:49:20.871Z,2.17
2018-07-31T16:51:48.461Z,2.10
2018-07-31T16:54:16.026Z,1.90
2018-07-31T16:56:43.606Z,2.65
2018-07-31T16:59:11.119Z,1.80
2018-07-31T17:01:38.638Z,2.33
2018-07-31T17:04:06.200Z,2.08
2018-07-31T17:06:34.834Z,2.60
2018-07-31T17:09:02.431Z,2.27
2018-07-31T17:11:29.953Z,2.10
2018-07-31T17:13:57.535Z,2.60
2018-07-31T17:16:25.062Z,2.33
2018-07-31T17:18:52.628Z,2.60
2018-07-31T17:21:20.138Z,2.42
2018-07-31T17:23:47.763Z,1.95
2018-07-31T17:26:15.408Z,2.50
2018-07-31T17:28:42.995Z,2.40
2018-07-31T17:31:10.874Z,2.83
2018-07-31T17:33:38.338Z,2.52
2018-07-31T17:36:06.176Z,2.42
2018-07-31T17:38:33.691Z,2.45
2018-07-31T17:41:01.252Z,2.37
2018-07-31T17:43:28.788Z,2.42
2018-07-31T17:45:56.237Z,2.60
2018-07-31T17:48:23.838Z,2.50
2018-07-31T17:50:51.523Z,2.40
2018-07-31T17:56:15.973Z,1.65
2018-07-31T17:58:43.630Z,1.20
2018-07-31T18:01:11.106Z,1.22
2018-07-31T18:03:38.691Z,1.45
2018-07-31T18:06:06.132Z,1.40
2018-07-31T18:08:33.646Z,1.42
2018-07-31T18:11:01.078Z,1.25
2018-07-31T18:13:28.535Z,1.42
2018-07-31T18:15:56.003Z,1.30
2018-07-31T18:18:23.442Z,1.02
2018-07-31T18:20:50.918Z,0.90
2018-07-31T18:23:18.354Z,1.10
2018-07-31T18:25:45.844Z,1.32
2018-07-31T18:28:13.345Z,1.00
2018-07-31T18:30:40.845Z,0.90
2018-07-31T18:33:08.625Z,1.02
2018-07-31T18:35:36.074Z,0.90
2018-07-31T18:38:03.701Z,0.68
2018-07-31T18:40:31.330Z,1.12
2018-07-31T18:42:59.403Z,1.00
2018-07-31T18:45:26.862Z,1.05
2018-07-31T18:47:54.308Z,1.20
2018-07-31T18:50:21.790Z,1.32
2018-07-31T18:52:49.243Z,0.62
2018-07-31T18:55:16.703Z,1.17
2018-07-31T18:57:44.370Z,1.00
2018-07-31T19:00:11.857Z,1.10
2018-07-31T19:02:39.335Z,1.12
2018-07-31T19:05:06.790Z,1.32
2018-07-31T19:07:34.298Z,1.25
2018-07-31T19:10:01.868Z,1.07
2018-07-31T19:12:29.335Z,0.80
2018-07-31T19:14:56.766Z,0.95
2018-07-31T19:17:24.234Z,1.30
2018-07-31T19:19:51.766Z,1.20
2018-07-31T19:22:20.157Z,1.67
2018-07-31T19:24:47.925Z,1.07
2018-07-31T19:27:17.053Z,0.95
2018-07-31T19:29:45.275Z,1.15
2018-07-31T19:32:14.130Z,1.20
2018-07-31T19:34:41.797Z,1.20
2018-07-31T19:37:09.541Z,1.10
2018-07-31T19:39:38.972Z,0.90
2018-07-31T19:42:07.563Z,1.15
2018-07-31T19:44:35.232Z,1.30
2018-07-31T19:47:03.254Z,1.12
2018-07-31T19:49:31.896Z,1.10
2018-07-31T19:52:03.809Z,1.20
2018-07-31T19:54:32.456Z,1.20
2018-07-31T19:57:00.969Z,1.27
2018-07-31T19:59:29.531Z,1.17
2018-07-31T20:01:57.721Z,1.22
2018-07-31T20:04:25.318Z,1.37
2018-07-31T20:06:52.921Z,1.50
2018-07-31T20:09:22.182Z,1.32
2018-07-31T20:11:51.152Z,1.37
2018-07-31T20:14:18.737Z,1.10
2018-07-31T20:16:46.227Z,1.07
2018-07-31T20:19:14.503Z,1.07
2018-07-31T20:21:44.588Z,1.00
2018-07-31T20:24:12.122Z,1.07
2018-07-31T20:26:39.664Z,0.90
2018-07-31T20:29:08.265Z,1.10
2018-07-31T20:31:35.784Z,1.25
2018-07-31T20:34:04.734Z,1.02
2018-07-31T20:36:34.664Z,1.17
2018-07-31T20:39:02.363Z,0.88
2018-07-31T20:41:31.151Z,0.80
2018-07-31T20:43:58.846Z,0.72
2018-07-31T20:46:27.390Z,1.10
2018-07-31T20:48:56.475Z,1.12
2018-07-31T20:51:24.053Z,1.12
2018-07-31T20:53:51.497Z,1.00
2018-07-31T20:56:18.936Z,1.42
2018-07-31T20:58:46.559Z,1.00
2018-07-31T21:01:14.780Z,1.10
2018-07-31T21:03:42.213Z,1.02
2018-07-31T21:06:11.039Z,1.07
2018-07-31T21:08:39.058Z,1.00
2018-07-31T21:11:09.454Z,0.72
2018-07-31T21:13:38.943Z,0.90
2018-07-31T21:16:08.646Z,0.78
2018-07-31T21:18:36.875Z,0.88
2018-07-31T21:21:06.312Z,1.02
2018-07-31T21:23:34.823Z,0.85
2018-07-31T21:26:02.378Z,0.90
2018-07-31T21:28:29.825Z,0.98
2018-07-31T21:30:57.269Z,0.70
2018-07-31T21:33:24.686Z,0.90
2018-07-31T21:35:52.438Z,0.80
2018-07-31T21:38:20.066Z,1.00
2018-07-31T21:40:47.503Z,0.93
2018-07-31T21:43:14.949Z,1.05
2018-07-31T21:45:42.388Z,0.70
2018-07-31T21:48:09.889Z,0.88
2018-07-31T21:50:37.414Z,0.85
2018-07-31T21:53:04.850Z,0.70
2018-07-31T21:55:32.902Z,0.90
2018-07-31T21:58:01.564Z,0.50
2018-07-31T22:00:36.226Z,0.50
2018-07-31T22:03:03.706Z,0.85
2018-07-31T22:05:31.134Z,0.98
2018-07-31T22:07:58.846Z,0.60
2018-07-31T22:10:28.693Z,0.75
2018-07-31T22:12:56.488Z,1.00
2018-07-31T22:15:24.222Z,0.82
2018-07-31T22:17:51.716Z,0.70
2018-07-31T22:20:19.177Z,0.78
2018-07-31T22:22:47.136Z,0.60
2018-07-31T22:25:14.757Z,0.70
2018-07-31T22:27:43.042Z,0.78
2018-07-31T22:30:11.121Z,0.70
2018-07-31T22:32:38.528Z,0.80
2018-07-31T22:35:06.429Z,0.70
2018-07-31T22:37:35.905Z,0.75
2018-07-31T22:40:03.989Z,1.12
2018-07-31T22:42:31.859Z,0.70
2018-07-31T22:44:59.270Z,0.82
2018-07-31T22:47:26.695Z,0.70
2018-07-31T22:49:54.131Z,0.50
2018-07-31T22:52:22.186Z,0.90
2018-07-31T22:54:49.809Z,0.60
2018-07-31T22:57:17.563Z,0.90
2018-07-31T22:59:45.007Z,0.70
2018-07-31T23:02:13.039Z,0.93
2018-07-31T23:04:40.477Z,0.88
2018-07-31T23:07:07.939Z,1.27
2018-07-31T23:09:35.457Z,0.88
2018-07-31T23:12:02.938Z,0.98
2018-07-31T23:14:30.944Z,0.80
2018-07-31T23:16:58.378Z,0.70
2018-07-31T23:19:25.781Z,0.88
2018-07-31T23:21:53.182Z,0.68
2018-07-31T23:24:20.625Z,1.20
2018-07-31T23:26:48.849Z,0.70
2018-07-31T23:29:16.294Z,1.10
2018-07-31T23:31:43.695Z,0.90
2018-07-31T23:34:11.108Z,0.80
2018-07-31T23:36:38.602Z,0.72
2018-07-31T23:39:06.917Z,0.70
2018-07-31T23:41:34.334Z,0.82
2018-07-31T23:44:01.759Z,1.07
2018-07-31T23:46:29.183Z,0.57
2018-07-31T23:48:56.605Z,1.12
2018-07-31T23:51:24.023Z,0.90
2018-07-31T23:53:51.486Z,1.00
2018-07-31T23:56:18.890Z,1.07
2018-07-31T23:58:46.350Z,0.98
